Terminal Aerodrome Forecast
Issued by NWS Denver/Boulder, CO

Home | Current Version | Previous Version | Text Only | Print | Product List | Glossary On
Versions: 1 2 3 4 5 6 7 8 9 10 11 12 13 14 15 16 17 18 19 20 21 22 23 24 25 26 27 28 29 30 31 32 33 34 35 36 37 38 39 40 41 42 43 44 45 46 47 48 49 50
000
FTUS45 KBOU 300438 AAC
TAFDEN
TAF AMD
KDEN 300438Z 3005/3106 15015G25KT P6SM VCTS FEW070CB SCT090 BKN120
     FM300600 18011KT P6SM SCT080 BKN120
     FM300800 20011KT P6SM SCT100
     FM301500 32007KT P6SM FEW060 SCT100
     FM302000 06010KT P6SM SCT080
     FM302300 08010KT P6SM VCTS SCT080CB SCT120
     FM310200 15010KT P6SM SCT120=

USA.gov is the U.S. government's official web portal to all federal, state and local government web resources and services.